sensor_id;sensor_type;location;lat;lon;timestamp;pressure;altitude;pressure_sealevel;temperature;humidity
72308;BME280;60257;42.638;23.376;2024-03-29T00:00:47;94405.91;;;10.34;59.20
72308;BME280;60257;42.638;23.376;2024-03-29T00:02:48;94405.72;;;10.27;59.09
72308;BME280;60257;42.638;23.376;2024-03-29T00:04:48;94403.78;;;10.27;59.11
72308;BME280;60257;42.638;23.376;2024-03-29T00:06:48;94407.31;;;10.28;60.38
72308;BME280;60257;42.638;23.376;2024-03-29T00:08:49;94394.50;;;10.32;58.28
72308;BME280;60257;42.638;23.376;2024-03-29T00:10:49;94402.38;;;10.49;57.41
72308;BME280;60257;42.638;23.376;2024-03-29T00:12:49;94402.38;;;10.49;58.22
72308;BME280;60257;42.638;23.376;2024-03-29T00:14:50;94397.16;;;10.44;58.68
72308;BME280;60257;42.638;23.376;2024-03-29T00:16:51;94399.53;;;10.46;59.08
72308;BME280;60257;42.638;23.376;2024-03-29T00:18:52;94405.81;;;10.46;58.53
72308;BME280;60257;42.638;23.376;2024-03-29T00:20:52;94417.41;;;10.39;59.04
72308;BME280;60257;42.638;23.376;2024-03-29T00:22:53;94417.06;;;10.41;58.56
72308;BME280;60257;42.638;23.376;2024-03-29T00:24:53;94418.19;;;10.40;59.30
72308;BME280;60257;42.638;23.376;2024-03-29T00:26:53;94420.13;;;10.39;59.54
72308;BME280;60257;42.638;23.376;2024-03-29T00:28:53;94424.41;;;10.37;58.92
72308;BME280;60257;42.638;23.376;2024-03-29T00:30:55;94420.13;;;10.39;58.67
72308;BME280;60257;42.638;23.376;2024-03-29T00:32:55;94428.03;;;10.41;58.51
72308;BME280;60257;42.638;23.376;2024-03-29T00:34:56;94420.25;;;10.43;57.55
72308;BME280;60257;42.638;23.376;2024-03-29T00:36:58;94423.78;;;10.44;58.02
72308;BME280;60257;42.638;23.376;2024-03-29T00:38:58;94425.47;;;10.48;57.65
72308;BME280;60257;42.638;23.376;2024-03-29T00:40:58;94426.38;;;10.52;57.44
72308;BME280;60257;42.638;23.376;2024-03-29T00:42:59;94433.78;;;10.52;57.79
72308;BME280;60257;42.638;23.376;2024-03-29T00:44:59;94432.81;;;10.44;58.44
72308;BME280;60257;42.638;23.376;2024-03-29T00:46:59;94425.81;;;10.47;57.64
72308;BME280;60257;42.638;23.376;2024-03-29T00:49:00;94430.16;;;10.48;57.35
72308;BME280;60257;42.638;23.376;2024-03-29T00:51:00;94428.13;;;10.45;57.25
72308;BME280;60257;42.638;23.376;2024-03-29T00:53:01;94434.41;;;10.45;57.59
72308;BME280;60257;42.638;23.376;2024-03-29T00:55:01;94422.09;;;10.39;58.24
72308;BME280;60257;42.638;23.376;2024-03-29T00:57:02;94431.22;;;10.43;58.04
72308;BME280;60257;42.638;23.376;2024-03-29T00:59:03;94443.13;;;10.35;57.90
72308;BME280;60257;42.638;23.376;2024-03-29T01:01:03;94438.59;;;10.27;58.42
72308;BME280;60257;42.638;23.376;2024-03-29T01:03:04;94441.34;;;10.27;58.67
72308;BME280;60257;42.638;23.376;2024-03-29T01:05:05;94443.28;;;10.26;58.60
72308;BME280;60257;42.638;23.376;2024-03-29T01:07:06;94445.50;;;10.21;58.68
72308;BME280;60257;42.638;23.376;2024-03-29T01:09:07;94441.81;;;10.17;59.23
72308;BME280;60257;42.638;23.376;2024-03-29T01:11:11;94456.66;;;10.16;58.91
72308;BME280;60257;42.638;23.376;2024-03-29T01:13:11;94454.84;;;10.20;58.88
72308;BME280;60257;42.638;23.376;2024-03-29T01:15:12;94449.38;;;10.20;59.12
72308;BME280;60257;42.638;23.376;2024-03-29T01:17:12;94446.84;;;10.15;59.14
72308;BME280;60257;42.638;23.376;2024-03-29T01:19:12;94451.78;;;10.09;59.11
72308;BME280;60257;42.638;23.376;2024-03-29T01:21:13;94457.72;;;10.11;59.05
72308;BME280;60257;42.638;23.376;2024-03-29T01:23:14;94451.78;;;10.09;58.96
72308;BME280;60257;42.638;23.376;2024-03-29T01:25:14;94461.94;;;10.09;58.92
72308;BME280;60257;42.638;23.376;2024-03-29T01:27:17;94471.75;;;10.10;59.22
72308;BME280;60257;42.638;23.376;2024-03-29T01:29:17;94455.56;;;10.04;58.73
72308;BME280;60257;42.638;23.376;2024-03-29T01:31:18;94457.19;;;10.06;59.53
72308;BME280;60257;42.638;23.376;2024-03-29T01:33:18;94467.69;;;10.03;59.39
72308;BME280;60257;42.638;23.376;2024-03-29T01:35:18;94465.75;;;10.04;59.06
72308;BME280;60257;42.638;23.376;2024-03-29T01:37:19;94466.88;;;10.03;59.55
72308;BME280;60257;42.638;23.376;2024-03-29T01:39:19;94468.38;;;10.00;59.83
72308;BME280;60257;42.638;23.376;2024-03-29T01:41:23;94475.09;;;10.03;59.45
72308;BME280;60257;42.638;23.376;2024-03-29T01:43:25;94473.84;;;10.00;59.11
72308;BME280;60257;42.638;23.376;2024-03-29T01:45:28;94470.91;;;9.93;59.98
72308;BME280;60257;42.638;23.376;2024-03-29T01:47:30;94461.47;;;9.91;60.35
72308;BME280;60257;42.638;23.376;2024-03-29T01:49:30;94470.00;;;9.89;59.65
72308;BME280;60257;42.638;23.376;2024-03-29T01:51:34;94479.22;;;9.97;59.51
72308;BME280;60257;42.638;23.376;2024-03-29T01:53:37;94486.09;;;9.91;60.04
72308;BME280;60257;42.638;23.376;2024-03-29T01:55:37;94486.78;;;9.88;60.03
72308;BME280;60257;42.638;23.376;2024-03-29T01:57:39;94490.06;;;9.93;59.73
72308;BME280;60257;42.638;23.376;2024-03-29T01:59:40;94482.44;;;9.87;60.15
72308;BME280;60257;42.638;23.376;2024-03-29T02:01:45;94495.69;;;9.85;59.93
72308;BME280;60257;42.638;23.376;2024-03-29T02:03:47;94505.84;;;9.84;59.63
72308;BME280;60257;42.638;23.376;2024-03-29T02:05:48;94505.84;;;9.84;60.45
72308;BME280;60257;42.638;23.376;2024-03-29T02:07:49;94504.59;;;9.82;60.14
72308;BME280;60257;42.638;23.376;2024-03-29T02:09:49;94516.78;;;9.84;59.83
72308;BME280;60257;42.638;23.376;2024-03-29T02:11:50;94517.03;;;9.79;60.28
72308;BME280;60257;42.638;23.376;2024-03-29T02:13:51;94519.91;;;9.71;60.80
72308;BME280;60257;42.638;23.376;2024-03-29T02:15:52;94534.66;;;9.66;61.44
72308;BME280;60257;42.638;23.376;2024-03-29T02:17:53;94535.31;;;9.63;61.86
72308;BME280;60257;42.638;23.376;2024-03-29T02:19:53;94540.78;;;9.63;61.28
72308;BME280;60257;42.638;23.376;2024-03-29T02:21:56;94545.94;;;9.64;60.77
72308;BME280;60257;42.638;23.376;2024-03-29T02:24:06;94548.91;;;9.59;61.83
72308;BME280;60257;42.638;23.376;2024-03-29T02:26:07;94553.81;;;9.54;62.36
72308;BME280;60257;42.638;23.376;2024-03-29T02:28:08;94555.88;;;9.57;61.93
72308;BME280;60257;42.638;23.376;2024-03-29T02:30:13;94562.25;;;9.49;62.81
72308;BME280;60257;42.638;23.376;2024-03-29T02:32:14;94571.59;;;9.48;63.01
72308;BME280;60257;42.638;23.376;2024-03-29T02:34:14;94577.41;;;9.46;62.28
72308;BME280;60257;42.638;23.376;2024-03-29T02:36:15;94582.31;;;9.41;62.79
72308;BME280;60257;42.638;23.376;2024-03-29T02:38:15;94587.22;;;9.35;62.35
72308;BME280;60257;42.638;23.376;2024-03-29T02:40:16;94588.84;;;9.36;62.70
72308;BME280;60257;42.638;23.376;2024-03-29T02:42:16;94591.78;;;9.31;62.13
72308;BME280;60257;42.638;23.376;2024-03-29T02:44:17;94599.66;;;9.33;62.02
72308;BME280;60257;42.638;23.376;2024-03-29T02:46:17;94601.47;;;9.29;62.08
72308;BME280;60257;42.638;23.376;2024-03-29T02:48:18;94603.75;;;9.26;62.10
72308;BME280;60257;42.638;23.376;2024-03-29T02:50:18;94606.16;;;9.28;62.15
72308;BME280;60257;42.638;23.376;2024-03-29T02:52:18;94607.28;;;9.27;62.46
72308;BME280;60257;42.638;23.376;2024-03-29T02:54:19;94611.16;;;9.26;62.03
72308;BME280;60257;42.638;23.376;2024-03-29T02:56:19;94611.25;;;9.30;62.07
72308;BME280;60257;42.638;23.376;2024-03-29T02:58:23;94608.09;;;9.27;62.25
72308;BME280;60257;42.638;23.376;2024-03-29T03:00:23;94599.88;;;9.27;62.09
72308;BME280;60257;42.638;23.376;2024-03-29T03:02:24;94608.53;;;9.30;61.77
72308;BME280;60257;42.638;23.376;2024-03-29T03:04:24;94608.19;;;9.31;61.66
72308;BME280;60257;42.638;23.376;2024-03-29T03:06:24;94606.25;;;9.32;61.61
72308;BME280;60257;42.638;23.376;2024-03-29T03:08:25;94610.59;;;9.33;61.76
72308;BME280;60257;42.638;23.376;2024-03-29T03:10:47;94614.78;;;9.30;61.62
72308;BME280;60257;42.638;23.376;2024-03-29T03:12:56;94612.75;;;9.27;62.11
72308;BME280;60257;42.638;23.376;2024-03-29T03:15:00;94611.16;;;9.26;61.79
72308;BME280;60257;42.638;23.376;2024-03-29T03:17:00;94616.41;;;9.31;61.69
72308;BME280;60257;42.638;23.376;2024-03-29T03:19:01;94629.66;;;9.29;61.96
72308;BME280;60257;42.638;23.376;2024-03-29T03:21:01;94629.28;;;9.31;62.13
72308;BME280;60257;42.638;23.376;2024-03-29T03:23:02;94626.53;;;9.31;61.88
72308;BME280;60257;42.638;23.376;2024-03-29T03:25:03;94635.22;;;9.20;62.32
72308;BME280;60257;42.638;23.376;2024-03-29T03:27:04;94638.84;;;9.24;62.17
72308;BME280;60257;42.638;23.376;2024-03-29T03:29:04;94636.44;;;9.23;62.29
72308;BME280;60257;42.638;23.376;2024-03-29T03:31:05;94635.66;;;9.22;62.21
72308;BME280;60257;42.638;23.376;2024-03-29T03:33:07;94637.84;;;9.29;62.29
72308;BME280;60257;42.638;23.376;2024-03-29T03:35:08;94647.78;;;9.34;61.85
72308;BME280;60257;42.638;23.376;2024-03-29T03:37:08;94650.50;;;9.34;62.09
72308;BME280;60257;42.638;23.376;2024-03-29T03:39:08;94646.16;;;9.33;62.02
72308;BME280;60257;42.638;23.376;2024-03-29T03:41:09;94654.03;;;9.34;62.17
72308;BME280;60257;42.638;23.376;2024-03-29T03:43:09;94670.13;;;9.36;62.08
72308;BME280;60257;42.638;23.376;2024-03-29T03:45:10;94672.50;;;9.37;62.00
72308;BME280;60257;42.638;23.376;2024-03-29T03:47:10;94672.97;;;9.39;61.64
72308;BME280;60257;42.638;23.376;2024-03-29T03:49:11;94671.03;;;9.40;61.71
72308;BME280;60257;42.638;23.376;2024-03-29T03:51:11;94666.03;;;9.42;61.33
72308;BME280;60257;42.638;23.376;2024-03-29T03:53:11;94671.03;;;9.40;61.84
72308;BME280;60257;42.638;23.376;2024-03-29T03:55:12;94680.03;;;9.28;62.08
72308;BME280;60257;42.638;23.376;2024-03-29T03:57:13;94678.09;;;9.29;62.37
72308;BME280;60257;42.638;23.376;2024-03-29T03:59:14;94687.88;;;9.30;62.26
72308;BME280;60257;42.638;23.376;2024-03-29T04:01:15;94683.69;;;9.32;62.20
72308;BME280;60257;42.638;23.376;2024-03-29T04:03:15;94681.41;;;9.34;62.00
72308;BME280;60257;42.638;23.376;2024-03-29T04:05:19;94688.59;;;9.39;61.79
72308;BME280;60257;42.638;23.376;2024-03-29T04:07:20;94696.00;;;9.38;61.81
72308;BME280;60257;42.638;23.376;2024-03-29T04:09:21;94699.09;;;9.37;61.84
72308;BME280;60257;42.638;23.376;2024-03-29T04:11:21;94688.50;;;9.35;61.72
72308;BME280;60257;42.638;23.376;2024-03-29T04:13:22;94684.94;;;9.35;61.69
72308;BME280;60257;42.638;23.376;2024-03-29T04:15:22;94698.88;;;9.42;61.31
72308;BME280;60257;42.638;23.376;2024-03-29T04:17:23;94699.34;;;9.44;61.62
72308;BME280;60257;42.638;23.376;2024-03-29T04:19:23;94709.03;;;9.41;61.25
72308;BME280;60257;42.638;23.376;2024-03-29T04:21:24;94723.84;;;9.40;61.88
72308;BME280;60257;42.638;23.376;2024-03-29T04:23:24;94718.69;;;9.39;61.63
72308;BME280;60257;42.638;23.376;2024-03-29T04:25:25;94725.56;;;9.45;61.61
72308;BME280;60257;42.638;23.376;2024-03-29T04:27:25;94729.56;;;9.47;61.42
72308;BME280;60257;42.638;23.376;2024-03-29T04:29:26;94725.56;;;9.45;61.54
72308;BME280;60257;42.638;23.376;2024-03-29T04:31:26;94737.19;;;9.42;62.51
72308;BME280;60257;42.638;23.376;2024-03-29T04:33:27;94742.09;;;9.36;63.13
72308;BME280;60257;42.638;23.376;2024-03-29T04:35:27;94738.88;;;9.34;62.62
72308;BME280;60257;42.638;23.376;2024-03-29T04:37:27;94740.81;;;9.34;62.73
72308;BME280;60257;42.638;23.376;2024-03-29T04:39:28;94742.75;;;9.33;62.74
72308;BME280;60257;42.638;23.376;2024-03-29T04:41:28;94749.34;;;9.32;62.94
72308;BME280;60257;42.638;23.376;2024-03-29T04:43:29;94751.09;;;9.37;62.53
72308;BME280;60257;42.638;23.376;2024-03-29T04:45:29;94753.84;;;9.37;62.65
72308;BME280;60257;42.638;23.376;2024-03-29T04:47:29;94761.03;;;9.41;63.12
72308;BME280;60257;42.638;23.376;2024-03-29T04:49:30;94759.91;;;9.42;63.01
72308;BME280;60257;42.638;23.376;2024-03-29T04:51:33;94771.66;;;9.43;63.37
72308;BME280;60257;42.638;23.376;2024-03-29T04:53:37;94770.94;;;9.46;63.48
72308;BME280;60257;42.638;23.376;2024-03-29T04:55:38;94774.16;;;9.48;63.34
72308;BME280;60257;42.638;23.376;2024-03-29T04:57:39;94769.16;;;9.50;64.08
72308;BME280;60257;42.638;23.376;2024-03-29T04:59:39;94777.72;;;9.60;62.92
72308;BME280;60257;42.638;23.376;2024-03-29T05:01:40;94771.13;;;9.61;63.34
72308;BME280;60257;42.638;23.376;2024-03-29T05:03:40;94786.09;;;9.64;64.19
72308;BME280;60257;42.638;23.376;2024-03-29T05:05:41;94780.84;;;9.71;63.40
72308;BME280;60257;42.638;23.376;2024-03-29T05:07:41;94783.25;;;9.73;64.08
72308;BME280;60257;42.638;23.376;2024-03-29T05:09:42;94783.84;;;9.78;63.67
72308;BME280;60257;42.638;23.376;2024-03-29T05:11:42;94782.47;;;9.84;63.33
72308;BME280;60257;42.638;23.376;2024-03-29T05:13:42;94787.06;;;9.92;62.93
72308;BME280;60257;42.638;23.376;2024-03-29T05:15:43;94785.72;;;9.98;62.35
72308;BME280;60257;42.638;23.376;2024-03-29T05:17:43;94788.69;;;10.06;63.09
72308;BME280;60257;42.638;23.376;2024-03-29T05:19:43;94783.31;;;10.09;62.94
72308;BME280;60257;42.638;23.376;2024-03-29T05:21:44;94790.97;;;10.16;61.83
72308;BME280;60257;42.638;23.376;2024-03-29T05:23:44;94792.97;;;10.27;61.70
72308;BME280;60257;42.638;23.376;2024-03-29T05:25:44;94791.72;;;10.37;61.31
72308;BME280;60257;42.638;23.376;2024-03-29T05:27:45;94799.81;;;10.46;61.21
72308;BME280;60257;42.638;23.376;2024-03-29T05:29:45;94788.72;;;10.54;61.80
72308;BME280;60257;42.638;23.376;2024-03-29T05:31:46;94799.13;;;10.61;61.76
72308;BME280;60257;42.638;23.376;2024-03-29T05:33:46;94799.38;;;10.68;60.59
72308;BME280;60257;42.638;23.376;2024-03-29T05:35:46;94806.69;;;10.76;60.55
72308;BME280;60257;42.638;23.376;2024-03-29T05:37:47;94801.16;;;10.88;60.24
72308;BME280;60257;42.638;23.376;2024-03-29T05:39:54;94808.47;;;10.96;60.09
72308;BME280;60257;42.638;23.376;2024-03-29T05:41:59;94805.59;;;11.05;59.58
72308;BME280;60257;42.638;23.376;2024-03-29T05:43:59;94804.75;;;11.16;59.87
72308;BME280;60257;42.638;23.376;2024-03-29T05:46:00;94799.47;;;11.24;59.89
72308;BME280;60257;42.638;23.376;2024-03-29T05:48:02;94796.50;;;11.29;60.25
72308;BME280;60257;42.638;23.376;2024-03-29T05:50:03;94802.66;;;11.38;60.04
72308;BME280;60257;42.638;23.376;2024-03-29T05:52:04;94799.66;;;11.43;59.96
72308;BME280;60257;42.638;23.376;2024-03-29T05:54:04;94795.50;;;11.49;59.66
72308;BME280;60257;42.638;23.376;2024-03-29T05:56:05;94781.72;;;11.61;59.04
72308;BME280;60257;42.638;23.376;2024-03-29T05:58:06;94787.84;;;11.70;58.93
72308;BME280;60257;42.638;23.376;2024-03-29T06:00:08;94799.97;;;11.81;58.19
72308;BME280;60257;42.638;23.376;2024-03-29T06:02:11;94804.59;;;11.93;56.31
72308;BME280;60257;42.638;23.376;2024-03-29T06:04:12;94802.94;;;12.04;54.75
72308;BME280;60257;42.638;23.376;2024-03-29T06:06:19;94804.44;;;12.17;54.50
72308;BME280;60257;42.638;23.376;2024-03-29T06:08:24;94812.63;;;12.29;54.83
72308;BME280;60257;42.638;23.376;2024-03-29T06:10:27;94804.56;;;12.37;53.76
72308;BME280;60257;42.638;23.376;2024-03-29T06:12:27;94814.31;;;12.50;54.12
72308;BME280;60257;42.638;23.376;2024-03-29T06:14:28;94806.22;;;12.57;54.19
72308;BME280;60257;42.638;23.376;2024-03-29T06:16:46;94816.59;;;12.63;53.62
72308;BME280;60257;42.638;23.376;2024-03-29T06:19:05;94822.03;;;12.76;53.71
72308;BME280;60257;42.638;23.376;2024-03-29T06:21:05;94821.47;;;12.86;52.91
72308;BME280;60257;42.638;23.376;2024-03-29T06:23:06;94821.38;;;12.98;52.92
72308;BME280;60257;42.638;23.376;2024-03-29T06:25:06;94822.22;;;13.02;52.13
72308;BME280;60257;42.638;23.376;2024-03-29T06:27:08;94819.72;;;13.13;52.43
72308;BME280;60257;42.638;23.376;2024-03-29T06:29:08;94822.38;;;13.25;51.65
72308;BME280;60257;42.638;23.376;2024-03-29T06:31:11;94811.16;;;13.33;51.33
72308;BME280;60257;42.638;23.376;2024-03-29T06:33:12;94817.63;;;13.41;51.44
72308;BME280;60257;42.638;23.376;2024-03-29T06:35:12;94817.34;;;13.46;50.97
72308;BME280;60257;42.638;23.376;2024-03-29T06:37:13;94816.75;;;13.56;51.05
72308;BME280;60257;42.638;23.376;2024-03-29T06:39:13;94820.47;;;13.64;50.90
72308;BME280;60257;42.638;23.376;2024-03-29T06:41:14;94818.66;;;13.71;50.55
72308;BME280;60257;42.638;23.376;2024-03-29T06:43:15;94821.94;;;13.77;50.72
72308;BME280;60257;42.638;23.376;2024-03-29T06:45:15;94818.56;;;13.87;50.01
72308;BME280;60257;42.638;23.376;2024-03-29T06:47:16;94831.84;;;14.01;49.54
72308;BME280;60257;42.638;23.376;2024-03-29T06:49:16;94822.56;;;14.09;48.97
72308;BME280;60257;42.638;23.376;2024-03-29T06:51:17;94829.00;;;14.16;48.79
72308;BME280;60257;42.638;23.376;2024-03-29T06:53:18;94832.69;;;14.24;48.96
72308;BME280;60257;42.638;23.376;2024-03-29T06:55:18;94833.91;;;14.26;48.35
72308;BME280;60257;42.638;23.376;2024-03-29T06:57:19;94828.50;;;14.34;48.46
72308;BME280;60257;42.638;23.376;2024-03-29T06:59:23;94829.75;;;14.36;48.17
72308;BME280;60257;42.638;23.376;2024-03-29T07:01:24;94834.91;;;14.38;48.04
72308;BME280;60257;42.638;23.376;2024-03-29T07:03:24;94833.47;;;14.44;48.03
72308;BME280;60257;42.638;23.376;2024-03-29T07:05:25;94836.78;;;14.53;47.80
72308;BME280;60257;42.638;23.376;2024-03-29T07:07:25;94833.28;;;14.56;48.15
72308;BME280;60257;42.638;23.376;2024-03-29T07:09:25;94840.59;;;14.68;47.85
72308;BME280;60257;42.638;23.376;2024-03-29T07:11:26;94841.06;;;14.73;47.07
72308;BME280;60257;42.638;23.376;2024-03-29T07:13:28;94834.50;;;14.81;47.10
72308;BME280;60257;42.638;23.376;2024-03-29T07:15:29;94843.66;;;14.85;46.51
72308;BME280;60257;42.638;23.376;2024-03-29T07:17:30;94853.56;;;14.90;46.42
72308;BME280;60257;42.638;23.376;2024-03-29T07:19:30;94846.28;;;15.01;46.80
72308;BME280;60257;42.638;23.376;2024-03-29T07:21:31;94855.81;;;15.07;46.22
72308;BME280;60257;42.638;23.376;2024-03-29T07:23:32;94853.50;;;15.09;46.17
72308;BME280;60257;42.638;23.376;2024-03-29T07:25:32;94851.66;;;15.17;45.51
72308;BME280;60257;42.638;23.376;2024-03-29T07:27:32;94846.91;;;15.17;45.30
72308;BME280;60257;42.638;23.376;2024-03-29T07:29:36;94853.50;;;15.09;45.97
72308;BME280;60257;42.638;23.376;2024-03-29T07:31:36;94851.69;;;15.20;45.92
72308;BME280;60257;42.638;23.376;2024-03-29T07:33:37;94848.19;;;15.23;45.91
72308;BME280;60257;42.638;23.376;2024-03-29T07:35:37;94846.25;;;15.27;45.42
72308;BME280;60257;42.638;23.376;2024-03-29T07:37:41;94850.34;;;15.37;45.54
72308;BME280;60257;42.638;23.376;2024-03-29T07:39:45;94847.25;;;15.42;45.18
72308;BME280;60257;42.638;23.376;2024-03-29T07:41:47;94849.31;;;15.49;44.79
72308;BME280;60257;42.638;23.376;2024-03-29T07:43:52;94845.81;;;15.52;45.20
72308;BME280;60257;42.638;23.376;2024-03-29T07:45:54;94851.69;;;15.47;45.63
72308;BME280;60257;42.638;23.376;2024-03-29T07:47:54;94851.63;;;15.43;45.29
72308;BME280;60257;42.638;23.376;2024-03-29T07:49:54;94850.56;;;15.51;45.09
72308;BME280;60257;42.638;23.376;2024-03-29T07:51:55;94851.81;;;15.54;45.01
72308;BME280;60257;42.638;23.376;2024-03-29T07:53:55;94842.38;;;15.58;45.74
72308;BME280;60257;42.638;23.376;2024-03-29T07:55:56;94842.25;;;15.51;45.11
72308;BME280;60257;42.638;23.376;2024-03-29T07:57:56;94846.31;;;15.57;45.16
72308;BME280;60257;42.638;23.376;2024-03-29T07:59:57;94844.06;;;15.66;45.12
72308;BME280;60257;42.638;23.376;2024-03-29T08:01:57;94845.81;;;15.78;44.81
72308;BME280;60257;42.638;23.376;2024-03-29T08:03:58;94841.97;;;15.86;44.76
72308;BME280;60257;42.638;23.376;2024-03-29T08:06:02;94841.63;;;15.91;44.86
72308;BME280;60257;42.638;23.376;2024-03-29T08:08:06;94840.53;;;15.99;45.44
72308;BME280;60257;42.638;23.376;2024-03-29T08:10:07;94839.47;;;16.07;45.27
72308;BME280;60257;42.638;23.376;2024-03-29T08:12:07;94840.75;;;16.17;44.64
72308;BME280;60257;42.638;23.376;2024-03-29T08:14:08;94841.16;;;16.19;44.50
72308;BME280;60257;42.638;23.376;2024-03-29T08:16:08;94835.31;;;16.24;44.15
72308;BME280;60257;42.638;23.376;2024-03-29T08:18:09;94826.66;;;16.29;43.99
72308;BME280;60257;42.638;23.376;2024-03-29T08:20:09;94825.19;;;16.39;44.28
72308;BME280;60257;42.638;23.376;2024-03-29T08:22:10;94828.00;;;16.46;44.49
72308;BME280;60257;42.638;23.376;2024-03-29T08:24:10;94820.22;;;16.59;44.87
72308;BME280;60257;42.638;23.376;2024-03-29T08:26:11;94823.91;;;16.70;43.48
72308;BME280;60257;42.638;23.376;2024-03-29T08:28:12;94814.84;;;16.73;43.21
72308;BME280;60257;42.638;23.376;2024-03-29T08:30:12;94820.06;;;16.81;42.97
72308;BME280;60257;42.638;23.376;2024-03-29T08:32:12;94816.94;;;16.86;42.60
72308;BME280;60257;42.638;23.376;2024-03-29T08:34:13;94803.47;;;16.85;42.41
72308;BME280;60257;42.638;23.376;2024-03-29T08:36:14;94810.25;;;16.91;42.70
72308;BME280;60257;42.638;23.376;2024-03-29T08:38:14;94809.50;;;16.94;42.44
72308;BME280;60257;42.638;23.376;2024-03-29T08:40:16;94810.66;;;16.93;42.29
72308;BME280;60257;42.638;23.376;2024-03-29T08:42:16;94805.13;;;16.93;42.76
72308;BME280;60257;42.638;23.376;2024-03-29T08:44:17;94804.38;;;17.00;42.55
72308;BME280;60257;42.638;23.376;2024-03-29T08:46:17;94800.13;;;17.13;42.35
72308;BME280;60257;42.638;23.376;2024-03-29T08:48:18;94807.72;;;17.23;41.89
72308;BME280;60257;42.638;23.376;2024-03-29T08:50:18;94797.06;;;17.28;42.10
72308;BME280;60257;42.638;23.376;2024-03-29T08:52:19;94808.63;;;17.41;42.06
72308;BME280;60257;42.638;23.376;2024-03-29T08:54:19;94805.91;;;17.48;41.84
72308;BME280;60257;42.638;23.376;2024-03-29T08:56:19;94790.91;;;17.56;42.02
72308;BME280;60257;42.638;23.376;2024-03-29T08:58:20;94790.16;;;17.63;41.44
72308;BME280;60257;42.638;23.376;2024-03-29T09:00:20;94791.34;;;17.65;41.71
72308;BME280;60257;42.638;23.376;2024-03-29T09:02:21;94784.66;;;17.70;41.05
72308;BME280;60257;42.638;23.376;2024-03-29T09:04:21;94782.31;;;17.79;40.19
72308;BME280;60257;42.638;23.376;2024-03-29T09:06:22;94776.00;;;17.86;41.24
72308;BME280;60257;42.638;23.376;2024-03-29T09:08:22;94778.78;;;17.86;40.38
72308;BME280;60257;42.638;23.376;2024-03-29T09:10:23;94783.53;;;17.92;39.47
72308;BME280;60257;42.638;23.376;2024-03-29T09:12:24;94780.00;;;17.95;38.87
72308;BME280;60257;42.638;23.376;2024-03-29T09:14:25;94768.50;;;18.00;38.61
72308;BME280;60257;42.638;23.376;2024-03-29T09:16:25;94765.75;;;18.00;38.71
72308;BME280;60257;42.638;23.376;2024-03-29T09:18:26;94763.38;;;18.02;38.09
72308;BME280;60257;42.638;23.376;2024-03-29T09:20:27;94765.28;;;17.84;38.48
72308;BME280;60257;42.638;23.376;2024-03-29T09:22:27;94752.63;;;17.87;38.91
72308;BME280;60257;42.638;23.376;2024-03-29T09:24:28;94763.75;;;17.94;38.17
72308;BME280;60257;42.638;23.376;2024-03-29T09:26:29;94756.97;;;17.91;36.59
72308;BME280;60257;42.638;23.376;2024-03-29T09:28:29;94755.03;;;17.95;36.81
72308;BME280;60257;42.638;23.376;2024-03-29T09:30:32;94752.28;;;18.02;37.85
72308;BME280;60257;42.638;23.376;2024-03-29T09:32:32;94753.06;;;17.96;37.97
72308;BME280;60257;42.638;23.376;2024-03-29T09:34:32;94749.47;;;17.95;38.30
72308;BME280;60257;42.638;23.376;2024-03-29T09:36:33;94740.38;;;18.09;38.67
72308;BME280;60257;42.638;23.376;2024-03-29T09:38:33;94739.19;;;18.14;39.01
72308;BME280;60257;42.638;23.376;2024-03-29T09:40:34;94724.53;;;18.17;37.71
72308;BME280;60257;42.638;23.376;2024-03-29T09:42:35;94728.91;;;18.21;38.71
72308;BME280;60257;42.638;23.376;2024-03-29T09:44:38;94728.91;;;18.28;37.36
72308;BME280;60257;42.638;23.376;2024-03-29T09:46:39;94726.56;;;18.34;38.45
72308;BME280;60257;42.638;23.376;2024-03-29T09:48:41;94723.00;;;18.40;39.17
72308;BME280;60257;42.638;23.376;2024-03-29T09:50:42;94722.59;;;18.45;39.16
72308;BME280;60257;42.638;23.376;2024-03-29T09:52:43;94724.19;;;18.50;39.18
72308;BME280;60257;42.638;23.376;2024-03-29T09:54:43;94712.69;;;18.48;39.36
72308;BME280;60257;42.638;23.376;2024-03-29T09:56:43;94713.06;;;18.54;39.39
72308;BME280;60257;42.638;23.376;2024-03-29T09:58:44;94703.16;;;18.53;39.24
72308;BME280;60257;42.638;23.376;2024-03-29T10:00:45;94700.03;;;18.65;39.45
72308;BME280;60257;42.638;23.376;2024-03-29T10:02:46;94711.50;;;18.74;38.75
72308;BME280;60257;42.638;23.376;2024-03-29T10:04:51;94706.34;;;18.69;37.73
72308;BME280;60257;42.638;23.376;2024-03-29T10:06:54;94706.38;;;18.72;38.29
72308;BME280;60257;42.638;23.376;2024-03-29T10:08:55;94707.16;;;18.76;38.30
72308;BME280;60257;42.638;23.376;2024-03-29T10:10:58;94703.16;;;18.74;38.39
72308;BME280;60257;42.638;23.376;2024-03-29T10:12:58;94706.75;;;18.71;37.37
72308;BME280;60257;42.638;23.376;2024-03-29T10:14:59;94712.69;;;18.76;37.72
72308;BME280;60257;42.638;23.376;2024-03-29T10:17:20;94711.50;;;18.88;37.65
72308;BME280;60257;42.638;23.376;2024-03-29T10:19:21;94703.56;;;18.83;38.31
72308;BME280;60257;42.638;23.376;2024-03-29T10:21:25;94711.50;;;18.95;37.15
72308;BME280;60257;42.638;23.376;2024-03-29T10:23:27;94703.16;;;19.02;37.11
72308;BME280;60257;42.638;23.376;2024-03-29T10:25:31;94697.59;;;19.02;36.94
72308;BME280;60257;42.638;23.376;2024-03-29T10:27:32;94698.75;;;19.05;36.03
72308;BME280;60257;42.638;23.376;2024-03-29T10:29:33;94696.41;;;19.03;37.22
72308;BME280;60257;42.638;23.376;2024-03-29T10:31:37;94696.00;;;19.12;37.05
72308;BME280;60257;42.638;23.376;2024-03-29T10:33:37;94696.75;;;19.16;38.38
72308;BME280;60257;42.638;23.376;2024-03-29T10:35:41;94701.94;;;19.07;36.35